createdAt,value
2023-02-09T00:00:02.660Z,102308.47
2023-02-09T00:02:30.112Z,102301.44
2023-02-09T00:04:58.705Z,102297.13
2023-02-09T00:07:26.071Z,102299.72
2023-02-09T00:09:53.547Z,102308.59
2023-02-09T00:12:38.487Z,102297.13
2023-02-09T00:15:07.223Z,102294.50
2023-02-09T00:17:35.760Z,102296.13
2023-02-09T00:20:04.921Z,102295.31
2023-02-09T00:22:32.901Z,102290.94
2023-02-09T00:25:00.469Z,102294.31
2023-02-09T00:27:27.810Z,102292.56
2023-02-09T00:29:55.120Z,102282.84
2023-02-09T00:32:22.382Z,102288.09
2023-02-09T00:34:49.875Z,102285.44
2023-02-09T00:37:18.790Z,102299.41
2023-02-09T00:39:46.165Z,102282.78
2023-02-09T00:42:13.437Z,102287.16
2023-02-09T00:44:41.873Z,102275.84
2023-02-09T00:47:09.277Z,102275.84
2023-02-09T00:49:36.833Z,102265.31
2023-02-09T00:52:04.185Z,102269.75
2023-02-09T00:54:32.839Z,102260.06
2023-02-09T00:57:05.218Z,102257.41
2023-02-09T00:59:34.069Z,102252.19
2023-02-09T01:02:01.569Z,102253.03
2023-02-09T01:04:29.001Z,102253.06
2023-02-09T01:06:56.311Z,102255.72
2023-02-09T01:09:23.598Z,102246.16
2023-02-09T01:11:52.194Z,102248.81
2023-02-09T01:14:19.511Z,102247.03
2023-02-09T01:16:46.887Z,102257.56
2023-02-09T01:19:14.332Z,102241.00
2023-02-09T01:21:42.403Z,102237.50
2023-02-09T01:24:13.258Z,102237.53
2023-02-09T01:26:40.922Z,102235.78
2023-02-09T01:29:12.607Z,102230.44
2023-02-09T01:31:39.996Z,102240.16
2023-02-09T01:34:07.319Z,102237.56
2023-02-09T01:36:34.982Z,102231.41
2023-02-09T01:39:02.976Z,102222.63
2023-02-09T01:41:30.291Z,102226.97
2023-02-09T01:43:59.383Z,102230.47
2023-02-09T01:46:29.437Z,102230.50
2023-02-09T01:49:00.072Z,102233.09
2023-02-09T01:51:28.770Z,102222.53
2023-02-09T01:53:56.191Z,102221.59
2023-02-09T01:56:27.180Z,102218.13
2023-02-09T01:58:54.978Z,102223.41
2023-02-09T02:01:22.843Z,102214.56
2023-02-09T02:03:52.586Z,102216.28
2023-02-09T02:06:20.402Z,102215.34
2023-02-09T02:08:49.771Z,102218.03
2023-02-09T02:11:17.363Z,102219.75
2023-02-09T02:13:44.904Z,102208.31
2023-02-09T02:16:19.231Z,102212.72
2023-02-09T02:18:58.038Z,102217.91
2023-02-09T02:21:38.416Z,102208.25
2023-02-09T02:24:12.684Z,102214.38
2023-02-09T02:26:49.649Z,102214.44
2023-02-09T02:29:25.194Z,102214.38
2023-02-09T02:32:09.801Z,102216.19
2023-02-09T02:34:42.561Z,102209.19
2023-02-09T02:37:14.035Z,102213.59
2023-02-09T02:39:44.837Z,102206.56
2023-02-09T02:42:31.905Z,102202.09
2023-02-09T02:45:04.313Z,102200.41
2023-02-09T02:47:35.137Z,102196.88
2023-02-09T02:50:06.830Z,102203.91
2023-02-09T02:52:34.197Z,102196.03
2023-02-09T02:55:03.897Z,102199.59
2023-02-09T02:57:33.453Z,102193.44
2023-02-09T03:00:03.488Z,102186.41
2023-02-09T03:02:33.535Z,102188.19
2023-02-09T03:05:03.476Z,102193.47
2023-02-09T03:07:30.781Z,102199.59
2023-02-09T03:09:58.325Z,102199.59
2023-02-09T03:12:33.292Z,102195.16
2023-02-09T03:15:09.525Z,102200.31
2023-02-09T03:17:42.449Z,102195.09
2023-02-09T03:20:15.326Z,102198.53
2023-02-09T03:22:43.668Z,102198.63
2023-02-09T03:25:13.819Z,102197.66
2023-02-09T03:27:42.742Z,102198.53
2023-02-09T03:30:12.523Z,102199.50
2023-02-09T03:32:40.248Z,102201.13
2023-02-09T03:35:09.130Z,102197.53
2023-02-09T03:37:37.715Z,102196.69
2023-02-09T03:40:05.361Z,102200.19
2023-02-09T03:42:32.635Z,102195.03
2023-02-09T03:44:59.908Z,102192.28
2023-02-09T03:47:27.243Z,102188.75
2023-02-09T03:49:54.530Z,102194.91
2023-02-09T03:52:21.800Z,102192.28
2023-02-09T03:54:50.419Z,102193.88
2023-02-09T03:57:17.850Z,102182.59
2023-02-09T03:59:45.211Z,102186.88
2023-02-09T04:02:12.525Z,102187.81
2023-02-09T04:04:40.021Z,102183.53
2023-02-09T04:07:07.307Z,102182.66
2023-02-09T04:09:35.000Z,102175.72
2023-02-09T04:12:03.605Z,102179.13
2023-02-09T04:14:30.868Z,102167.78
2023-02-09T04:16:58.137Z,102172.16
2023-02-09T04:19:25.498Z,102173.88
2023-02-09T04:21:52.758Z,102178.19
2023-02-09T04:24:21.317Z,102170.09
2023-02-09T04:26:48.608Z,102176.31
2023-02-09T04:29:17.200Z,102172.69
2023-02-09T04:31:44.528Z,102179.75
2023-02-09T04:34:12.028Z,102180.53
2023-02-09T04:36:39.272Z,102169.16
2023-02-09T04:39:06.538Z,102173.47
2023-02-09T04:41:33.820Z,102164.75
2023-02-09T04:44:01.098Z,102158.50
2023-02-09T04:46:29.865Z,102159.50
2023-02-09T04:48:57.109Z,102163.72
2023-02-09T04:51:24.370Z,102157.59
2023-02-09T04:53:51.625Z,102160.22
2023-02-09T04:56:18.900Z,102163.63
2023-02-09T04:59:04.076Z,102172.31
2023-02-09T05:01:33.591Z,102165.88
2023-02-09T05:04:00.898Z,102165.03
2023-02-09T05:06:28.260Z,102164.06
2023-02-09T05:08:55.538Z,102158.75
2023-02-09T05:11:25.285Z,102156.84
2023-02-09T05:13:52.862Z,102154.00
2023-02-09T05:16:20.190Z,102165.84
2023-02-09T05:18:50.306Z,102167.75
2023-02-09T05:21:17.569Z,102159.97
2023-02-09T05:23:44.852Z,102157.06
2023-02-09T05:26:12.132Z,102151.78
2023-02-09T05:28:39.519Z,102162.56
2023-02-09T05:31:06.871Z,102158.56
2023-02-09T05:33:34.263Z,102163.75
2023-02-09T05:36:08.208Z,102159.16
2023-02-09T05:38:35.686Z,102150.50
2023-02-09T05:41:04.874Z,102153.00
2023-02-09T05:43:32.182Z,102156.72
2023-02-09T05:45:59.472Z,102158.19
2023-02-09T05:48:26.824Z,102147.22
2023-02-09T05:50:54.106Z,102147.81
2023-02-09T05:53:25.277Z,102157.31
2023-02-09T05:55:52.526Z,102157.75
2023-02-09T05:58:19.782Z,102157.22
2023-02-09T06:00:47.676Z,102154.88
2023-02-09T06:03:15.176Z,102153.00
2023-02-09T06:05:45.132Z,102158.38
2023-02-09T06:08:12.415Z,102153.56
2023-02-09T06:10:41.008Z,102159.88
2023-02-09T06:13:08.338Z,102157.72
2023-02-09T06:15:35.645Z,102150.78
2023-02-09T06:18:03.249Z,102159.31
2023-02-09T06:20:30.508Z,102167.00
2023-02-09T06:22:57.794Z,102168.78
2023-02-09T06:25:25.047Z,102172.00
2023-02-09T06:27:53.691Z,102173.69
2023-02-09T06:30:21.012Z,102175.16
2023-02-09T06:32:48.271Z,102178.28
2023-02-09T06:35:15.589Z,102184.88
2023-02-09T06:37:42.870Z,102176.66
2023-02-09T06:40:10.503Z,102169.41
2023-02-09T06:42:46.784Z,102177.38
2023-02-09T06:45:16.396Z,102180.53
2023-02-09T06:47:44.523Z,102180.00
2023-02-09T06:50:13.170Z,102177.81
2023-02-09T06:52:40.566Z,102185.09
2023-02-09T06:55:08.291Z,102183.38
2023-02-09T06:57:36.142Z,102181.56
2023-02-09T07:00:04.930Z,102182.66
2023-02-09T07:02:33.823Z,102184.41
2023-02-09T07:05:01.313Z,102178.84
2023-02-09T07:07:28.616Z,102176.31
2023-02-09T07:09:56.000Z,102168.19
2023-02-09T07:12:23.505Z,102169.88
2023-02-09T07:14:50.786Z,102165.03
2023-02-09T07:17:18.059Z,102165.38
2023-02-09T07:19:47.021Z,102168.09
2023-02-09T07:22:14.452Z,102170.03
2023-02-09T07:24:41.887Z,102169.78
2023-02-09T07:27:09.252Z,102166.97
2023-02-09T07:29:36.613Z,102178.88
2023-02-09T07:32:04.005Z,102176.22
2023-02-09T07:34:31.332Z,102173.72
2023-02-09T07:36:59.999Z,102176.06
2023-02-09T07:39:27.379Z,102182.97
2023-02-09T07:41:54.920Z,102180.91
2023-02-09T07:44:22.258Z,102180.38
2023-02-09T07:46:49.767Z,102179.72
2023-02-09T07:49:17.259Z,102171.59
2023-02-09T07:51:44.646Z,102177.91
2023-02-09T07:54:14.878Z,102176.25
2023-02-09T07:56:42.891Z,102180.00
2023-02-09T07:59:11.118Z,102188.03
2023-02-09T08:01:38.493Z,102179.31
2023-02-09T08:04:05.963Z,102181.13
2023-02-09T08:06:42.175Z,102176.97
2023-02-09T08:09:11.478Z,102181.28
2023-02-09T08:11:41.468Z,102186.66
2023-02-09T08:14:11.913Z,102185.91
2023-02-09T08:16:39.624Z,102195.69
2023-02-09T08:19:09.750Z,102190.28
2023-02-09T08:21:38.569Z,102195.78
2023-02-09T08:24:06.834Z,102192.50
2023-02-09T08:26:34.238Z,102195.13
2023-02-09T08:29:03.228Z,102204.91
2023-02-09T08:31:30.775Z,102198.94
2023-02-09T08:33:58.179Z,102200.88
2023-02-09T08:36:25.486Z,102193.28
2023-02-09T08:38:52.891Z,102190.81
2023-02-09T08:41:20.289Z,102190.03
2023-02-09T08:43:51.598Z,102185.75
2023-02-09T08:46:20.521Z,102181.28
2023-02-09T08:48:48.161Z,102174.19
2023-02-09T08:51:16.236Z,102172.69
2023-02-09T08:53:46.118Z,102174.38
2023-02-09T08:56:13.463Z,102175.44
2023-02-09T08:58:40.793Z,102173.69
2023-02-09T09:01:08.251Z,102173.78
2023-02-09T09:03:37.333Z,102178.25
2023-02-09T09:06:05.552Z,102172.09
2023-02-09T09:08:33.696Z,102172.16
2023-02-09T09:11:01.090Z,102167.81
2023-02-09T09:13:28.748Z,102164.31
2023-02-09T09:15:56.490Z,102172.25
2023-02-09T09:18:24.236Z,102168.72
2023-02-09T09:20:52.971Z,102181.91
2023-02-09T09:23:21.111Z,102178.44
2023-02-09T09:25:48.570Z,102181.06
2023-02-09T09:28:16.142Z,102183.69
2023-02-09T09:30:43.555Z,102167.84
2023-02-09T09:33:10.891Z,102169.63
2023-02-09T09:35:38.430Z,102174.88
2023-02-09T09:38:07.037Z,102173.13
2023-02-09T09:40:35.598Z,102170.47
2023-02-09T09:43:03.898Z,102172.22
2023-02-09T09:45:33.481Z,102168.66
2023-02-09T09:48:00.998Z,102159.81
2023-02-09T09:50:29.526Z,102167.75
2023-02-09T09:52:59.038Z,102165.03
2023-02-09T09:55:29.516Z,102172.97
2023-02-09T09:57:59.458Z,102176.47
2023-02-09T10:00:28.360Z,102172.88
2023-02-09T10:02:55.718Z,102165.84
2023-02-09T10:05:24.392Z,102173.78
2023-02-09T10:07:55.738Z,102165.81
2023-02-09T10:10:29.567Z,102164.91
2023-02-09T10:12:59.102Z,102172.72
2023-02-09T10:15:28.606Z,102163.78
2023-02-09T10:17:55.962Z,102160.25
2023-02-09T10:20:38.165Z,102169.16
2023-02-09T10:23:05.483Z,102173.53
2023-02-09T10:25:38.696Z,102173.59
2023-02-09T10:28:15.328Z,102165.50
2023-02-09T10:30:46.841Z,102152.16
2023-02-09T10:33:15.677Z,102143.06
2023-02-09T10:35:45.544Z,102137.59
2023-02-09T10:38:16.822Z,102136.63
2023-02-09T10:40:44.150Z,102128.56
2023-02-09T10:43:20.740Z,102118.81
2023-02-09T10:45:49.272Z,102112.69
2023-02-09T10:48:18.936Z,102112.59
2023-02-09T10:50:50.134Z,102100.19
2023-02-09T10:53:20.206Z,102114.44
2023-02-09T10:55:47.750Z,102107.28
2023-02-09T10:58:21.480Z,102103.66
2023-02-09T11:00:50.603Z,102101.56
2023-02-09T11:03:18.925Z,102096.88
2023-02-09T11:05:47.901Z,102094.94
2023-02-09T11:08:18.368Z,102096.75
2023-02-09T11:10:50.366Z,102077.94
2023-02-09T11:13:22.276Z,102079.00
2023-02-09T11:16:00.708Z,102082.59
2023-02-09T11:18:30.013Z,102077.88
2023-02-09T11:21:03.226Z,102071.44
2023-02-09T11:23:43.249Z,102064.34
2023-02-09T11:26:16.109Z,102055.44
2023-02-09T11:28:49.088Z,102049.03
2023-02-09T11:31:25.187Z,102053.66
2023-02-09T11:33:57.488Z,102062.63
2023-02-09T11:36:34.117Z,102044.06
2023-02-09T11:39:02.576Z,102050.44
2023-02-09T11:41:48.095Z,102042.31
2023-02-09T11:44:21.506Z,102037.00
2023-02-09T11:46:49.837Z,102039.81
2023-02-09T11:49:20.363Z,102033.66
2023-02-09T11:51:49.047Z,102036.06
2023-02-09T11:54:18.441Z,102028.16
2023-02-09T11:56:49.827Z,102024.88
2023-02-09T11:59:22.393Z,102028.41
2023-02-09T12:01:53.348Z,102011.97
2023-02-09T12:04:24.617Z,102009.25
2023-02-09T12:06:54.537Z,101997.75
2023-02-09T12:09:31.481Z,102000.72
2023-02-09T12:12:03.236Z,101998.16
2023-02-09T12:14:39.531Z,101989.16
2023-02-09T12:17:11.677Z,101978.47
2023-02-09T12:19:42.203Z,101983.00
2023-02-09T12:22:24.431Z,101984.97
2023-02-09T12:25:11.807Z,101982.28
2023-02-09T12:27:41.484Z,101974.34
2023-02-09T12:30:23.673Z,101979.41
2023-02-09T12:32:52.322Z,101959.88
2023-02-09T12:35:27.235Z,101962.44
2023-02-09T12:38:09.129Z,101954.63
2023-02-09T12:40:37.179Z,101950.38
2023-02-09T12:43:10.991Z,101952.19
2023-02-09T12:45:39.393Z,101945.13
2023-02-09T12:48:17.587Z,101946.19
2023-02-09T12:50:53.500Z,101939.16
2023-02-09T12:53:37.988Z,101938.34
2023-02-09T12:56:24.041Z,101912.84
2023-02-09T12:58:56.175Z,101910.06
2023-02-09T13:01:43.473Z,101913.63
2023-02-09T13:04:13.570Z,101909.97
2023-02-09T13:06:44.345Z,101917.25
2023-02-09T13:09:19.976Z,101925.34
2023-02-09T13:11:49.738Z,101930.66
2023-02-09T13:14:18.273Z,101927.16
2023-02-09T13:16:59.912Z,101919.97
2023-02-09T13:19:47.686Z,101915.34
2023-02-09T13:22:26.212Z,101914.47
2023-02-09T13:25:00.180Z,101910.19
2023-02-09T13:27:28.350Z,101902.94
2023-02-09T13:29:56.975Z,101909.19
2023-02-09T13:32:35.074Z,101908.31
2023-02-09T13:35:07.641Z,101900.34
2023-02-09T13:37:43.794Z,101894.38
2023-02-09T13:40:15.453Z,101882.88
2023-02-09T13:42:52.247Z,101875.00
2023-02-09T13:45:20.301Z,101870.75
2023-02-09T13:47:48.220Z,101876.09
2023-02-09T13:50:18.963Z,101892.06
2023-02-09T13:52:46.254Z,101892.00
2023-02-09T13:55:16.252Z,101897.25
2023-02-09T13:57:44.890Z,101900.75
2023-02-09T14:00:19.674Z,101906.94
2023-02-09T14:02:48.916Z,101900.84
2023-02-09T14:05:24.186Z,101906.19
2023-02-09T14:07:51.867Z,101904.41
2023-02-09T14:10:19.741Z,101896.44
2023-02-09T14:12:55.411Z,101897.25
2023-02-09T14:15:43.061Z,101902.53
2023-02-09T14:18:37.339Z,101902.69
2023-02-09T14:21:14.850Z,101897.53
2023-02-09T14:23:43.098Z,101900.09
2023-02-09T14:26:19.636Z,101907.34
2023-02-09T14:28:50.009Z,101912.81
2023-02-09T14:31:19.141Z,101923.38
2023-02-09T14:33:48.292Z,101929.66
2023-02-09T14:36:23.325Z,101920.91
2023-02-09T14:38:51.702Z,101922.69
2023-02-09T14:41:28.898Z,101920.88
2023-02-09T14:44:00.454Z,101922.63
2023-02-09T14:46:27.857Z,101910.34
2023-02-09T14:48:58.397Z,101921.81
2023-02-09T14:51:28.477Z,101928.16
2023-02-09T14:53:55.885Z,101921.88
2023-02-09T14:56:24.664Z,101929.09
2023-02-09T14:58:51.976Z,101930.84
2023-02-09T15:01:19.351Z,101929.97
2023-02-09T15:03:46.731Z,101917.63
2023-02-09T15:06:14.882Z,101913.19
2023-02-09T15:08:44.076Z,101902.75
2023-02-09T15:11:31.683Z,101908.97
2023-02-09T15:14:01.487Z,101918.84
2023-02-09T15:16:29.280Z,101918.00
2023-02-09T15:18:56.636Z,101916.19
2023-02-09T15:21:24.048Z,101918.03
2023-02-09T15:23:52.708Z,101914.63
2023-02-09T15:26:20.409Z,101924.34
2023-02-09T15:28:48.295Z,101913.75
2023-02-09T15:31:16.375Z,101917.38
2023-02-09T15:33:44.146Z,101917.47
2023-02-09T15:36:13.536Z,101914.78
2023-02-09T15:38:40.847Z,101922.91
2023-02-09T15:41:28.817Z,101919.31
2023-02-09T15:44:13.677Z,101924.69
2023-02-09T15:46:58.521Z,101931.00
2023-02-09T15:49:25.860Z,101932.78
2023-02-09T15:51:53.359Z,101926.63
2023-02-09T15:54:22.479Z,101945.25
2023-02-09T15:56:51.066Z,101943.63
2023-02-09T15:59:20.003Z,101935.66
2023-02-09T16:01:48.277Z,101936.59
2023-02-09T16:04:15.709Z,101933.03
2023-02-09T16:06:45.055Z,101931.41
2023-02-09T16:09:17.251Z,101941.16
2023-02-09T16:11:44.680Z,101942.03
2023-02-09T16:14:16.183Z,101940.31
2023-02-09T16:16:44.779Z,101943.00
2023-02-09T16:19:12.230Z,101937.78
2023-02-09T16:21:39.820Z,101943.94
2023-02-09T16:24:08.067Z,101941.28
2023-02-09T16:26:35.570Z,101943.97
2023-02-09T16:29:02.885Z,101951.94
2023-02-09T16:31:31.678Z,101950.19
2023-02-09T16:33:58.972Z,101946.63
2023-02-09T16:36:28.206Z,101956.38
2023-02-09T16:38:55.534Z,101958.16
2023-02-09T16:41:40.540Z,101963.44
2023-02-09T16:44:14.804Z,101949.41
2023-02-09T16:46:43.588Z,101954.69
2023-02-09T16:49:18.242Z,101953.84
2023-02-09T16:51:45.791Z,101957.41
2023-02-09T16:54:13.106Z,101966.22
2023-02-09T16:56:53.605Z,101965.34
2023-02-09T16:59:21.311Z,101982.97
2023-02-09T17:01:50.222Z,101983.88
2023-02-09T17:04:17.942Z,101994.44
2023-02-09T17:06:46.093Z,101982.09
2023-02-09T17:09:14.930Z,101991.78
2023-02-09T17:11:42.236Z,101985.63
2023-02-09T17:14:09.732Z,101984.72
2023-02-09T17:16:39.216Z,101997.06
2023-02-09T17:19:11.385Z,101996.16
2023-02-09T17:21:40.233Z,102002.28
2023-02-09T17:24:12.210Z,102009.34
2023-02-09T17:26:40.317Z,102007.63
2023-02-09T17:29:07.609Z,102010.22
2023-02-09T17:31:50.685Z,102004.06
2023-02-09T17:34:26.806Z,102005.84
2023-02-09T17:36:54.105Z,102017.25
2023-02-09T17:39:24.855Z,102027.75
2023-02-09T17:41:52.151Z,102026.91
2023-02-09T17:44:34.869Z,102018.13
2023-02-09T17:47:10.555Z,102033.91
2023-02-09T17:49:39.193Z,102033.91
2023-02-09T17:52:06.692Z,102045.38
2023-02-09T17:54:33.991Z,102033.91
2023-02-09T17:57:01.266Z,102032.16
2023-02-09T17:59:28.578Z,102040.91
2023-02-09T18:01:56.186Z,102036.50
2023-02-09T18:04:26.700Z,102047.88
2023-02-09T18:06:57.676Z,102048.72
2023-02-09T18:09:25.117Z,102040.84
2023-02-09T18:11:57.323Z,102042.56
2023-02-09T18:14:25.202Z,102046.94
2023-02-09T18:16:53.437Z,102029.41
2023-02-09T18:19:20.749Z,102031.16
2023-02-09T18:21:48.749Z,102022.34
2023-02-09T18:24:17.443Z,102032.03
2023-02-09T18:26:46.727Z,102032.03
2023-02-09T18:29:14.063Z,102032.91
2023-02-09T18:31:41.353Z,102032.91
2023-02-09T18:34:08.779Z,102021.41
2023-02-09T18:36:36.281Z,102029.34
2023-02-09T18:39:03.644Z,102024.97
2023-02-09T18:41:32.336Z,102011.84
2023-02-09T18:43:59.642Z,102012.59
2023-02-09T18:46:27.079Z,102016.06
2023-02-09T18:48:55.056Z,102022.28
2023-02-09T18:51:22.749Z,102026.69
2023-02-09T18:53:51.287Z,102024.94
2023-02-09T18:56:19.920Z,102023.09
2023-02-09T18:58:48.613Z,102027.47
2023-02-09T19:01:16.376Z,102032.69
2023-02-09T19:03:43.646Z,102026.59
2023-02-09T19:06:11.819Z,102018.75
2023-02-09T19:08:39.840Z,102016.97
2023-02-09T19:11:07.558Z,102023.03
2023-02-09T19:13:35.480Z,102030.88
2023-02-09T19:16:04.266Z,102035.34
2023-02-09T19:18:31.591Z,102023.06
2023-02-09T19:20:59.165Z,102027.44
2023-02-09T19:23:26.486Z,102022.22
2023-02-09T19:26:01.400Z,102009.97
2023-02-09T19:28:28.751Z,102022.31
2023-02-09T19:30:56.119Z,102021.41
2023-02-09T19:33:24.808Z,102019.63
2023-02-09T19:35:58.405Z,102020.47
2023-02-09T19:38:26.491Z,102028.41
2023-02-09T19:41:08.535Z,102026.75
2023-02-09T19:43:36.983Z,102030.31
2023-02-09T19:46:04.503Z,102036.50
2023-02-09T19:48:33.199Z,102032.09
2023-02-09T19:51:00.703Z,102033.00
2023-02-09T19:53:28.279Z,102032.03
2023-02-09T19:55:55.712Z,102029.34
2023-02-09T19:58:23.139Z,102030.16
2023-02-09T20:00:50.486Z,102030.97
2023-02-09T20:03:17.959Z,102019.53
2023-02-09T20:05:47.210Z,102027.44
2023-02-09T20:08:16.854Z,102020.28
2023-02-09T20:10:45.143Z,102034.53
2023-02-09T20:13:13.342Z,102029.22
2023-02-09T20:15:41.525Z,102042.34
2023-02-09T20:18:08.877Z,102045.84
2023-02-09T20:20:36.148Z,102039.72
2023-02-09T20:23:06.777Z,102040.63
2023-02-09T20:25:34.056Z,102035.34
2023-02-09T20:28:01.418Z,102035.34
2023-02-09T20:30:28.877Z,102030.00
2023-02-09T20:32:56.145Z,102036.16
2023-02-09T20:35:23.401Z,102035.28
2023-02-09T20:37:52.729Z,102036.91
2023-02-09T20:40:21.620Z,102027.25
2023-02-09T20:43:06.364Z,102023.84
2023-02-09T20:45:59.570Z,102030.66
2023-02-09T20:48:26.892Z,102029.03
2023-02-09T20:50:54.184Z,102017.63
2023-02-09T20:53:22.362Z,102021.91
2023-02-09T20:55:50.941Z,102021.03
2023-02-09T20:58:19.166Z,102027.13
2023-02-09T21:00:46.544Z,102015.69
2023-02-09T21:03:14.006Z,102021.84
2023-02-09T21:05:41.300Z,102013.09
2023-02-09T21:08:09.139Z,102008.66
2023-02-09T21:10:38.355Z,102012.16
2023-02-09T21:13:07.461Z,102014.78
2023-02-09T21:15:34.918Z,102010.31
2023-02-09T21:18:02.349Z,102007.75
2023-02-09T21:20:32.023Z,102015.53
2023-02-09T21:22:59.337Z,102017.38
2023-02-09T21:25:27.607Z,102021.84
2023-02-09T21:27:55.653Z,102019.22
2023-02-09T21:30:24.276Z,102028.81
2023-02-09T21:32:51.769Z,102027.09
2023-02-09T21:35:19.026Z,102045.41
2023-02-09T21:37:46.305Z,102042.72
2023-02-09T21:40:15.972Z,102045.25
2023-02-09T21:42:43.337Z,102050.53
2023-02-09T21:45:10.603Z,102051.44
2023-02-09T21:47:39.999Z,102049.66
2023-02-09T21:50:08.382Z,102057.50
2023-02-09T21:52:35.996Z,102059.31
2023-02-09T21:55:03.269Z,102067.94
2023-02-09T21:57:30.664Z,102069.50
2023-02-09T21:59:58.896Z,102069.97
2023-02-09T22:02:27.346Z,102072.91
2023-02-09T22:04:56.094Z,102075.56
2023-02-09T22:07:23.356Z,102082.78
2023-02-09T22:09:50.622Z,102085.28
2023-02-09T22:12:17.874Z,102091.34
2023-02-09T22:14:45.126Z,102095.84
2023-02-09T22:17:12.392Z,102097.56
2023-02-09T22:19:39.641Z,102094.03
2023-02-09T22:22:08.301Z,102097.31
2023-02-09T22:24:35.661Z,102102.63
2023-02-09T22:27:03.419Z,102109.56
2023-02-09T22:29:33.147Z,102105.88
2023-02-09T22:32:00.422Z,102106.00
2023-02-09T22:34:27.729Z,102100.81
2023-02-09T22:36:55.184Z,102101.59
2023-02-09T22:39:23.891Z,102102.41
2023-02-09T22:41:51.144Z,102100.72
2023-02-09T22:44:18.716Z,102094.41
2023-02-09T22:46:46.890Z,102096.22
2023-02-09T22:49:16.232Z,102097.69
2023-02-09T22:51:43.723Z,102097.72
2023-02-09T22:54:10.981Z,102096.84
2023-02-09T22:56:39.567Z,102096.91
2023-02-09T22:59:06.841Z,102093.53
2023-02-09T23:01:34.424Z,102091.84
2023-02-09T23:04:01.736Z,102097.19
2023-02-09T23:06:30.119Z,102093.63
2023-02-09T23:08:58.947Z,102095.47
2023-02-09T23:11:26.812Z,102092.88
2023-02-09T23:14:11.616Z,102094.69
2023-02-09T23:16:39.991Z,102090.09
2023-02-09T23:19:08.155Z,102097.09
2023-02-09T23:21:36.762Z,102097.03
2023-02-09T23:24:04.377Z,102097.00
2023-02-09T23:26:31.682Z,102090.94
2023-02-09T23:29:01.235Z,102089.97
2023-02-09T23:31:29.090Z,102083.03
2023-02-09T23:33:56.546Z,102079.69
2023-02-09T23:36:24.562Z,102077.88
2023-02-09T23:38:53.455Z,102085.66
2023-02-09T23:41:20.932Z,102081.06
2023-02-09T23:43:48.525Z,102087.25
2023-02-09T23:46:17.931Z,102080.94
2023-02-09T23:48:45.627Z,102097.50
2023-02-09T23:51:14.546Z,102094.22
2023-02-09T23:53:42.221Z,102095.03
2023-02-09T23:56:09.493Z,102100.06
2023-02-09T23:58:38.284Z,102108.53
